Terminal Aerodrome Forecast
Issued by NWS Greer, SC

Home | Current Version | Previous Version | Text Only | Print | Product List | Glossary On
Versions: 1 2 3 4 5 6 7 8 9 10 11 12 13 14 15 16 17 18 19 20 21 22 23 24 25 26
000
FTUS42 KGSP 041403 AAB
TAFGSP
TAF AMD
KGSP 041403Z 0414/0512 23015G25KT P6SM VCSH SCT035 BKN070
     FM042100 24014G24KT P6SM -SHRA VCTS SCT040 BKN120CB
     FM050000 23007KT P6SM BKN110 OVC250
     FM050800 23003KT P6SM BKN120 OVC250=

USA.gov is the U.S. government's official web portal to all federal, state and local government web resources and services.